地図

経路データ

SID SEASON NUMBER BASIN SUBBASIN NAME ISO_TIME NATURE LAT LON WMO_WIND WMO_PRES WMO_AGENCY TRACK_TYPE DIST2LAND LANDFALL IFLAG USA_AGENCY USA_ATCF_ID USA_LAT USA_LON USA_RECORD USA_STATUS USA_WIND USA_PRES USA_SSHS USA_R34_NE USA_R34_SE USA_R34_SW USA_R34_NW USA_R50_NE USA_R50_SE USA_R50_SW USA_R50_NW USA_R64_NE USA_R64_SE USA_R64_SW USA_R64_NW USA_POCI USA_ROCI USA_RMW USA_EYE TOKYO_LAT TOKYO_LON TOKYO_GRADE TOKYO_WIND TOKYO_PRES TOKYO_R50_DIR TOKYO_R50_LONG TOKYO_R50_SHORT TOKYO_R30_DIR TOKYO_R30_LONG TOKYO_R30_SHORT TOKYO_LAND CMA_LAT CMA_LON CMA_CAT CMA_WIND CMA_PRES HKO_LAT HKO_LON HKO_CAT HKO_WIND HKO_PRES NEWDELHI_LAT NEWDELHI_LON NEWDELHI_GRADE NEWDELHI_WIND NEWDELHI_PRES NEWDELHI_CI NEWDELHI_DP NEWDELHI_POCI REUNION_LAT REUNION_LON REUNION_TYPE REUNION_WIND REUNION_PRES REUNION_TNUM REUNION_CI REUNION_RMW REUNION_R34_NE REUNION_R34_SE REUNION_R34_SW REUNION_R34_NW REUNION_R50_NE REUNION_R50_SE REUNION_R50_SW REUNION_R50_NW REUNION_R64_NE REUNION_R64_SE REUNION_R64_SW REUNION_R64_NW BOM_LAT BOM_LON BOM_TYPE BOM_WIND BOM_PRES BOM_TNUM BOM_CI BOM_RMW BOM_R34_NE BOM_R34_SE BOM_R34_SW BOM_R34_NW BOM_R50_NE BOM_R50_SE BOM_R50_SW BOM_R50_NW BOM_R64_NE BOM_R64_SE BOM_R64_SW BOM_R64_NW BOM_ROCI BOM_POCI BOM_EYE BOM_POS_METHOD BOM_PRES_METHOD NADI_LAT NADI_LON NADI_CAT NADI_WIND NADI_PRES WELLINGTON_LAT WELLINGTON_LON WELLINGTON_WIND WELLINGTON_PRES DS824_LAT DS824_LON DS824_STAGE DS824_WIND DS824_PRES TD9636_LAT TD9636_LON TD9636_STAGE TD9636_WIND TD9636_PRES TD9635_LAT TD9635_LON TD9635_WIND TD9635_PRES TD9635_ROCI NEUMANN_LAT NEUMANN_LON NEUMANN_CLASS NEUMANN_WIND NEUMANN_PRES MLC_LAT MLC_LON MLC_CLASS MLC_WIND MLC_PRES USA_GUST BOM_GUST BOM_GUST_PER REUNION_GUST REUNION_GUST_PER USA_SEAHGT USA_SEARAD_NE USA_SEARAD_SE USA_SEARAD_SW USA_SEARAD_NW STORM_SPEED STORM_DIR
1941178N05150 1941 29 WP MM NOT_NAMED 1941-06-26 12:00:00 NR 5.00000 150.000 main 846 826 __________O___ -1 5.00000 150.000 4 21 277
1941178N05150 1941 29 WP MM NOT_NAMED 1941-06-26 15:00:00 NR 5.12051 148.974 main 826 821 __________P___ -1 5.12051 148.974 4 20 277
1941178N05150 1941 29 WP MM NOT_NAMED 1941-06-26 18:00:00 NR 5.24205 148.008 main 820 820 __________P___ -1 5.24205 148.008 4 18 278
1941178N05150 1941 29 WP MM NOT_NAMED 1941-06-26 21:00:00 NR 5.36748 147.163 main 840 840 __________P___ -1 5.36748 147.163 4 15 280
1941178N05150 1941 29 WP MM NOT_NAMED 1941-06-27 00:00:00 NR 5.50000 146.500 main 851 851 __________O___ -1 5.50000 146.500 4 11 284
1941178N05150 1941 29 WP MM NOT_NAMED 1941-06-27 03:00:00 NR 5.64198 146.057 main 864 864 __________P___ -1 5.64198 146.057 4 8 292
1941178N05150 1941 29 WP MM NOT_NAMED 1941-06-27 06:00:00 NR 5.79150 145.777 main 889 889 __________P___ -1 5.79150 145.777 4 6 303
1941178N05150 1941 29 WP MM NOT_NAMED 1941-06-27 09:00:00 NR 5.94532 145.585 main 903 903 __________P___ -1 5.94532 145.585 4 5 309
1941178N05150 1941 29 WP MM NOT_NAMED 1941-06-27 12:00:00 NR 6.10000 145.400 main 928 928 __________O___ -1 6.10000 145.400 4 5 302
1941178N05150 1941 29 WP MM NOT_NAMED 1941-06-27 15:00:00 NR 6.23365 145.123 main 944 944 __________P___ -1 6.23365 145.123 4 6 296
1941178N05150 1941 29 WP MM NOT_NAMED 1941-06-27 18:00:00 NR 6.36984 144.837 main 973 973 __________P___ -1 6.36984 144.837 4 7 296
1941178N05150 1941 29 WP MM NOT_NAMED 1941-06-27 21:00:00 NR 6.52112 144.533 main 991 991 __________P___ -1 6.52112 144.533 4 7 298
1941178N05150 1941 29 WP MM NOT_NAMED 1941-06-28 00:00:00 NR 6.70000 144.200 main 1021 1021 __________O___ -1 6.70000 144.200 4 8 299
1941178N05150 1941 29 WP MM NOT_NAMED 1941-06-28 03:00:00 NR 6.90915 143.817 main 1055 1055 __________P___ -1 6.90915 143.817 4 9 300
1941178N05150 1941 29 WP MM NOT_NAMED 1941-06-28 06:00:00 NR 7.14763 143.407 main 1090 1090 __________P___ -1 7.14763 143.407 4 10 302
1941178N05150 1941 29 WP MM NOT_NAMED 1941-06-28 09:00:00 NR 7.41228 142.995 main 1135 1131 __________P___ -1 7.41228 142.995 4 10 305
1941178N05150 1941 29 WP MM NOT_NAMED 1941-06-28 12:00:00 NR 7.70000 142.600 main 1149 1145 __________O___ -1 7.70000 142.600 4 9 310
1941178N05150 1941 29 WP MM NOT_NAMED 1941-06-28 15:00:00 NR 7.97435 142.321 main 1168 1168 __________P___ -1 7.97435 142.321 4 8 317
1941178N05150 1941 29 WP MM NOT_NAMED 1941-06-28 18:00:00 NR 8.27394 142.053 main 1190 1186 __________P___ -1 8.27394 142.053 4 9 318
1941178N05150 1941 29 WP MM NOT_NAMED 1941-06-28 21:00:00 NR 8.61159 141.734 main 1207 1207 __________P___ -1 8.61159 141.734 4 10 314
1941178N05150 1941 29 WP MM NOT_NAMED 1941-06-29 00:00:00 NR 9.00000 141.300 main 1236 1233 __________O___ -1 9.00000 141.300 4 14 311
1941178N05150 1941 29 WP MM NOT_NAMED 1941-06-29 03:00:00 NR 9.49440 140.701 main 1270 1270 __________P___ -1 9.49440 140.701 4 17 308
1941178N05150 1941 29 WP MM NOT_NAMED 1941-06-29 06:00:00 NR 10.0299 139.981 main 1292 1292 __________P___ -1 10.0299 139.981 4 18 305
1941178N05150 1941 29 WP MM NOT_NAMED 1941-06-29 09:00:00 NR 10.5504 139.170 main 1327 1320 __________P___ -1 10.5504 139.170 4 19 300
1941178N05150 1941 29 WP MM NOT_NAMED 1941-06-29 12:00:00 NR 11.0000 138.300 main 1336 1247 __________O___ -1 11.0000 138.300 4 19 293
1941178N05150 1941 29 WP MM NOT_NAMED 1941-06-29 15:00:00 NR 11.3213 137.364 main 1247 1148 __________P___ -1 11.3213 137.364 4 20 287
1941178N05150 1941 29 WP MM NOT_NAMED 1941-06-29 18:00:00 NR 11.5640 136.390 main 1148 1055 __________P___ -1 11.5640 136.390 4 19 283
1941178N05150 1941 29 WP MM NOT_NAMED 1941-06-29 21:00:00 NR 11.7495 135.445 main 1044 964 __________P___ -1 11.7495 135.445 4 18 281
1941178N05150 1941 29 WP MM NOT_NAMED 1941-06-30 00:00:00 NR 11.9000 134.600 main 964 901 __________O___ -1 11.9000 134.600 4 15 281
1941178N05150 1941 29 WP MM NOT_NAMED 1941-06-30 03:00:00 NR 12.0481 133.933 main 890 839 __________P___ -1 12.0481 133.933 4 12 283
1941178N05150 1941 29 WP MM NOT_NAMED 1941-06-30 06:00:00 NR 12.1706 133.372 main 839 787 __________P___ -1 12.1706 133.372 4 11 283
1941178N05150 1941 29 WP MM NOT_NAMED 1941-06-30 09:00:00 NR 12.2828 132.874 main 787 736 __________P___ -1 12.2828 132.874 4 10 284
1941178N05150 1941 29 WP MM NOT_NAMED 1941-06-30 12:00:00 NR 12.4000 132.400 main 736 685 __________O___ -1 12.4000 132.400 4 10 283
1941178N05150 1941 29 WP MM NOT_NAMED 1941-06-30 15:00:00 NR 12.5100 131.877 main 685 635 __________P___ -1 12.5100 131.877 4 10 283
1941178N05150 1941 29 WP MM NOT_NAMED 1941-06-30 18:00:00 NR 12.6321 131.369 main 635 590 __________P___ -1 12.6321 131.369 4 10 286
1941178N05150 1941 29 WP MM NOT_NAMED 1941-06-30 21:00:00 NR 12.7882 130.877 main 590 539 __________P___ -1 12.7882 130.877 4 10 291
1941178N05150 1941 29 WP MM NOT_NAMED 1941-07-01 00:00:00 NR 13.0000 130.400 main 539 493 __________O___ -1 13.0000 130.400 4 11 299
1941178N05150 1941 29 WP MM NOT_NAMED 1941-07-01 03:00:00 NR 13.3085 129.924 main 493 461 __________P___ -1 13.3085 129.924 4 11 306
1941178N05150 1941 29 WP MM NOT_NAMED 1941-07-01 06:00:00 NR 13.6698 129.463 main 465 429 __________P___ -1 13.6698 129.463 4 12 310
1941178N05150 1941 29 WP MM NOT_NAMED 1941-07-01 09:00:00 NR 14.0461 129.021 main 429 416 __________P___ -1 14.0461 129.021 4 11 311
1941178N05150 1941 29 WP MM NOT_NAMED 1941-07-01 12:00:00 NR 14.4000 128.600 main 416 404 __________O___ -1 14.4000 128.600 4 10 308
1941178N05150 1941 29 WP MM NOT_NAMED 1941-07-01 15:00:00 NR 14.6702 128.211 main 404 388 __________P___ -1 14.6702 128.211 4 9 305
1941178N05150 1941 29 WP MM NOT_NAMED 1941-07-01 18:00:00 NR 14.9144 127.841 main 383 359 __________P___ -1 14.9144 127.841 4 9 304
1941178N05150 1941 29 WP MM NOT_NAMED 1941-07-01 21:00:00 NR 15.1514 127.476 main 364 335 __________P___ -1 15.1514 127.476 4 9 304
1941178N05150 1941 29 WP MM NOT_NAMED 1941-07-02 00:00:00 NR 15.4000 127.100 main 335 319 __________O___ -1 15.4000 127.100 4 9 305
1941178N05150 1941 29 WP MM NOT_NAMED 1941-07-02 03:00:00 NR 15.6937 126.681 main 319 302 __________P___ -1 15.6937 126.681 4 10 306
1941178N05150 1941 29 WP MM NOT_NAMED 1941-07-02 06:00:00 NR 16.0000 126.250 main 310 300 __________P___ -1 16.0000 126.250 4 10 306
1941178N05150 1941 29 WP MM NOT_NAMED 1941-07-02 09:00:00 NR 16.3062 125.819 main 303 302 __________P___ -1 16.3062 125.819 4 10 306
1941178N05150 1941 29 WP MM NOT_NAMED 1941-07-02 12:00:00 NR 16.6000 125.400 main 310 266 __________O___ -1 16.6000 125.400 4 9 306
1941178N05150 1941 29 WP MM NOT_NAMED 1941-07-02 15:00:00 NR 16.8638 125.026 main 266 234 __________P___ -1 16.8638 125.026 4 9 306
1941178N05150 1941 29 WP MM NOT_NAMED 1941-07-02 18:00:00 NR 17.1142 124.664 main 234 194 __________P___ -1 17.1142 124.664 4 9 305
1941178N05150 1941 29 WP MM NOT_NAMED 1941-07-02 21:00:00 NR 17.3575 124.295 main 196 162 __________P___ -1 17.3575 124.295 4 9 304
1941178N05150 1941 29 WP MM NOT_NAMED 1941-07-03 00:00:00 NR 17.6000 123.900 main 162 129 __________O___ -1 17.6000 123.900 4 9 302
1941178N05150 1941 29 WP MM NOT_NAMED 1941-07-03 03:00:00 NR 17.8457 123.465 main 129 77 __________P___ -1 17.8457 123.465 4 10 300
1941178N05150 1941 29 WP MM NOT_NAMED 1941-07-03 06:00:00 NR 18.0921 123.002 main 77 21 __________P___ -1 18.0921 123.002 4 10 299
1941178N05150 1941 29 WP MM NOT_NAMED 1941-07-03 09:00:00 NR 18.3424 122.512 main 21 0 __________P___ -1 18.3424 122.512 4 11 298
1941178N05150 1941 29 WP MM NOT_NAMED 1941-07-03 12:00:00 NR 18.6000 122.000 main 24 24 __________O___ -1 18.6000 122.000 4 12 298
1941178N05150 1941 29 WP MM NOT_NAMED 1941-07-03 15:00:00 NR 18.8805 121.431 main 44 44 __________P___ -1 18.8805 121.431 4 12 297
1941178N05150 1941 29 WP MM NOT_NAMED 1941-07-03 18:00:00 NR 19.1658 120.848 main 67 67 __________P___ -1 19.1658 120.848 4 12 298
1941178N05150 1941 29 WP MM NOT_NAMED 1941-07-03 21:00:00 NR 19.4431 120.291 main 103 103 __________P___ -1 19.4431 120.291 4 11 298
1941178N05150 1941 29 WP MM NOT_NAMED 1941-07-04 00:00:00 NR 19.7000 119.800 main 161 161 __________O___ -1 19.7000 119.800 4 9 300
1941178N05150 1941 29 WP MM NOT_NAMED 1941-07-04 03:00:00 NR 19.9125 119.423 main 206 206 __________P___ -1 19.9125 119.423 4 8 302
1941178N05150 1941 29 WP MM NOT_NAMED 1941-07-04 06:00:00 NR 20.1064 119.116 main 244 244 __________P___ -1 20.1064 119.116 4 7 306
1941178N05150 1941 29 WP MM NOT_NAMED 1941-07-04 09:00:00 NR 20.2971 118.851 main 258 258 __________P___ -1 20.2971 118.851 4 6 309
1941178N05150 1941 29 WP MM NOT_NAMED 1941-07-04 12:00:00 NR 20.5000 118.600 main 268 268 __________O___ -1 20.5000 118.600 4 7 310
1941178N05150 1941 29 WP MM NOT_NAMED 1941-07-04 15:00:00 NR 20.7151 118.317 main 282 277 __________P___ -1 20.7151 118.317 4 7 311
1941178N05150 1941 29 WP MM NOT_NAMED 1941-07-04 18:00:00 NR 20.9473 118.042 main 271 232 __________P___ -1 20.9473 118.042 4 7 314
1941178N05150 1941 29 WP MM NOT_NAMED 1941-07-04 21:00:00 NR 21.2058 117.770 main 232 187 __________P___ -1 21.2058 117.770 4 8 318
1941178N05150 1941 29 WP MM NOT_NAMED 1941-07-05 00:00:00 NR 21.5000 117.500 main 187 142 __________O___ -1 21.5000 117.500 4 8 321
1941178N05150 1941 29 WP MM NOT_NAMED 1941-07-05 03:00:00 NR 21.8390 117.221 main 142 93 __________P___ -1 21.8390 117.221 4 9 324
1941178N05150 1941 29 WP MM NOT_NAMED 1941-07-05 06:00:00 NR 22.2124 116.942 main 88 39 __________P___ -1 22.2124 116.942 4 9 326
1941178N05150 1941 29 WP MM NOT_NAMED 1941-07-05 09:00:00 NR 22.6046 116.668 main 39 0 __________P___ -1 22.6046 116.668 4 9 328
1941178N05150 1941 29 WP MM NOT_NAMED 1941-07-05 12:00:00 NR 23.0000 116.400 main 0 0 __________O___ -1 23.0000 116.400 4 9 328
1941178N05150 1941 29 WP MM NOT_NAMED 1941-07-05 15:00:00 NR 23.3860 116.142 main 0 0 __________P___ -1 23.3860 116.142 4 9 328
1941178N05150 1941 29 WP MM NOT_NAMED 1941-07-05 18:00:00 NR 23.7627 115.891 main 0 0 __________P___ -1 23.7627 115.891 4 9 329
1941178N05150 1941 29 WP MM NOT_NAMED 1941-07-05 21:00:00 NR 24.1330 115.645 main 0 0 __________P___ -1 24.1330 115.645 4 9 329
1941178N05150 1941 29 WP MM NOT_NAMED 1941-07-06 00:00:00 NR 24.5000 115.400 main 0 __________O___ -1 24.5000 115.400 4 9 329

デジタル台風データ・検索

IBTrACS Databaseについて

本データベースは、米国NOAAが公開する1842年以降の世界の熱帯低気圧のベストトラックデータアーカイブInternational Best Track Archive for Climate Stewardship (IBTrACS)を、ウェブで閲覧しやすい形式に変換したものです。

最終更新日:2021-12-01